createdAt,value
2019-04-22T00:00:51.369Z,2.98
2019-04-22T00:03:22.031Z,3.33
2019-04-22T00:06:14.713Z,3.50
2019-04-22T00:08:44.549Z,3.08
2019-04-22T00:11:19.589Z,3.05
2019-04-22T00:13:47.279Z,3.85
2019-04-22T00:16:22.625Z,3.50
2019-04-22T00:19:06.182Z,3.47
2019-04-22T00:21:20.095Z,3.50
2019-04-22T00:23:45.198Z,3.15
2019-04-22T00:26:20.694Z,3.65
2019-04-22T00:28:52.303Z,3.65
2019-04-22T00:31:25.410Z,3.80
2019-04-22T00:33:53.179Z,3.65
2019-04-22T00:36:23.292Z,4.17
2019-04-22T00:38:59.148Z,3.70
2019-04-22T00:41:29.791Z,4.37
2019-04-22T00:43:59.998Z,3.70
2019-04-22T00:46:25.117Z,3.52
2019-04-22T00:49:28.780Z,4.22
2019-04-22T00:51:28.558Z,4.05
2019-04-22T00:53:54.614Z,4.25
2019-04-22T00:56:21.962Z,5.05
2019-04-22T00:58:50.575Z,4.83
2019-04-22T01:01:26.579Z,4.62
2019-04-22T01:06:27.079Z,4.40
2019-04-22T01:08:57.897Z,4.25
2019-04-22T01:11:29.546Z,4.03
2019-04-22T01:14:00.147Z,4.95
2019-04-22T01:18:55.906Z,4.37
2019-04-22T01:21:30.560Z,4.05
2019-04-22T01:23:53.347Z,4.10
2019-04-22T01:26:20.275Z,3.98
2019-04-22T01:28:50.040Z,4.30
2019-04-22T01:31:12.565Z,4.10
2019-04-22T01:33:43.894Z,3.65
2019-04-22T01:36:24.628Z,4.03
2019-04-22T01:38:58.442Z,4.70
2019-04-22T01:41:42.085Z,4.65
2019-04-22T01:44:19.426Z,4.12
2019-04-22T01:46:39.635Z,3.90
2019-04-22T01:48:59.549Z,4.10
2019-04-22T01:51:48.543Z,3.83
2019-04-22T01:54:05.657Z,4.05
2019-04-22T01:56:36.109Z,4.15
2019-04-22T01:58:54.702Z,3.85
2019-04-22T02:01:41.514Z,4.00
2019-04-22T02:04:00.896Z,3.65
2019-04-22T02:06:34.653Z,4.20
2019-04-22T02:09:13.785Z,3.77
2019-04-22T02:11:38.970Z,3.65
2019-04-22T02:14:04.033Z,3.90
2019-04-22T02:16:36.130Z,3.50
2019-04-22T02:19:12.647Z,4.25
2019-04-22T02:21:31.899Z,4.67
2019-04-22T02:24:02.667Z,4.30
2019-04-22T02:26:35.538Z,4.10
2019-04-22T02:29:01.130Z,4.05
2019-04-22T02:31:45.326Z,3.60
2019-04-22T02:34:31.106Z,4.10
2019-04-22T02:39:19.916Z,3.52
2019-04-22T02:41:30.894Z,4.05
2019-04-22T02:44:14.043Z,3.70
2019-04-22T02:47:08.432Z,3.75
2019-04-22T02:51:44.949Z,4.28
2019-04-22T02:59:12.429Z,3.70
2019-04-22T03:01:41.147Z,4.45
2019-04-22T03:09:12.673Z,4.12
2019-04-22T03:14:07.862Z,3.45
2019-04-22T03:16:40.753Z,3.98
2019-04-22T03:19:13.954Z,4.08
2019-04-22T03:21:36.674Z,3.95
2019-04-22T03:29:04.905Z,4.22
2019-04-22T03:35:15.823Z,3.65
2019-04-22T03:39:41.576Z,3.90
2019-04-22T03:42:07.111Z,4.00
2019-04-22T03:44:31.137Z,4.00
2019-04-22T03:47:09.469Z,4.40
2019-04-22T03:49:39.215Z,4.97
2019-04-22T03:57:26.522Z,4.22
2019-04-22T04:02:16.078Z,4.80
2019-04-22T04:04:31.749Z,5.00
2019-04-22T04:09:23.869Z,4.42
2019-04-22T04:11:59.608Z,4.55
2019-04-22T04:14:26.216Z,4.20
2019-04-22T04:19:48.197Z,4.60
2019-04-22T04:21:46.991Z,4.60
2019-04-22T04:32:09.758Z,4.30
2019-04-22T04:34:50.579Z,4.70
2019-04-22T04:39:26.400Z,4.33
2019-04-22T04:42:05.448Z,4.17
2019-04-22T04:44:34.760Z,4.17
2019-04-22T04:47:03.523Z,4.55
2019-04-22T04:49:34.928Z,4.55
2019-04-22T04:51:56.020Z,4.42
2019-04-22T04:54:30.232Z,5.05
2019-04-22T04:56:56.451Z,4.80
2019-04-22T04:59:42.066Z,4.40
2019-04-22T05:01:52.046Z,4.80
2019-04-22T05:04:25.463Z,4.70
2019-04-22T05:09:29.761Z,4.50
2019-04-22T05:12:07.767Z,4.47
2019-04-22T05:14:36.788Z,4.50
2019-04-22T05:16:59.745Z,4.83
2019-04-22T05:21:58.142Z,4.83
2019-04-22T05:24:23.865Z,4.40
2019-04-22T05:27:14.671Z,4.65
2019-04-22T05:31:52.238Z,4.53
2019-04-22T05:34:26.475Z,4.80
2019-04-22T05:39:17.251Z,4.62
2019-04-22T05:41:48.627Z,4.72
2019-04-22T05:44:36.129Z,4.95
2019-04-22T05:46:47.991Z,4.80
2019-04-22T05:49:18.244Z,4.55
2019-04-22T05:51:48.222Z,4.30
2019-04-22T05:54:20.922Z,4.25
2019-04-22T05:56:47.589Z,4.22
2019-04-22T05:59:20.778Z,4.20
2019-04-22T06:04:39.660Z,3.92
2019-04-22T06:06:46.865Z,4.37
2019-04-22T06:09:26.055Z,4.30
2019-04-22T06:11:46.176Z,4.40
2019-04-22T06:14:13.905Z,4.85
2019-04-22T06:16:50.414Z,4.70
2019-04-22T06:19:21.136Z,4.10
2019-04-22T06:21:49.095Z,4.37
2019-04-22T06:24:26.104Z,4.15
2019-04-22T06:29:19.610Z,3.98
2019-04-22T06:32:11.779Z,5.50
2019-04-22T06:34:26.545Z,4.28
2019-04-22T06:36:52.221Z,3.87
2019-04-22T06:41:59.106Z,4.20
2019-04-22T06:44:25.899Z,4.10
2019-04-22T06:46:52.559Z,4.17
2019-04-22T06:49:22.765Z,4.35
2019-04-22T06:51:55.791Z,3.70
2019-04-22T06:54:26.138Z,3.62
2019-04-22T06:56:49.189Z,3.45
2019-04-22T06:59:19.089Z,4.20
2019-04-22T07:01:52.523Z,3.80
2019-04-22T07:04:19.813Z,3.62
2019-04-22T07:06:56.817Z,4.00
2019-04-22T07:11:55.258Z,4.15
2019-04-22T07:14:18.644Z,3.70
2019-04-22T07:16:51.032Z,3.65
2019-04-22T07:19:26.580Z,3.60
2019-04-22T07:21:50.905Z,3.95
2019-04-22T07:24:37.469Z,3.80
2019-04-22T07:26:51.255Z,4.28
2019-04-22T07:29:27.868Z,4.10
2019-04-22T07:31:56.293Z,4.22
2019-04-22T07:34:28.377Z,3.75
2019-04-22T07:36:59.050Z,4.00
2019-04-22T07:39:26.833Z,3.83
2019-04-22T07:41:50.880Z,3.75
2019-04-22T07:44:25.837Z,3.70
2019-04-22T07:46:57.968Z,3.67
2019-04-22T07:49:26.672Z,3.67
2019-04-22T07:51:50.116Z,3.70
2019-04-22T07:54:24.340Z,3.70
2019-04-22T07:57:02.581Z,3.25
2019-04-22T07:59:22.250Z,3.47
2019-04-22T08:01:50.689Z,3.45
2019-04-22T08:04:44.224Z,3.50
2019-04-22T08:06:58.960Z,3.60
2019-04-22T08:09:29.527Z,3.15
2019-04-22T08:11:53.932Z,3.37
2019-04-22T08:14:30.115Z,3.58
2019-04-22T08:17:01.376Z,3.10
2019-04-22T08:21:57.054Z,3.33
2019-04-22T08:24:22.221Z,3.58
2019-04-22T08:26:56.084Z,3.22
2019-04-22T08:29:35.466Z,3.35
2019-04-22T08:31:55.017Z,3.08
2019-04-22T08:39:26.790Z,2.75
2019-04-22T08:41:48.598Z,3.40
2019-04-22T08:44:28.199Z,2.85
2019-04-22T08:46:56.131Z,3.05
2019-04-22T08:49:30.695Z,2.95
2019-04-22T08:51:58.867Z,2.92
2019-04-22T08:54:24.332Z,3.22
2019-04-22T08:56:55.540Z,3.42
2019-04-22T08:59:22.223Z,3.12
2019-04-22T09:01:49.223Z,3.12
2019-04-22T09:04:16.112Z,3.00
2019-04-22T09:07:10.492Z,3.00
2019-04-22T09:09:26.816Z,3.17
2019-04-22T09:11:54.360Z,2.92
2019-04-22T09:14:34.508Z,3.15
2019-04-22T09:17:00.028Z,3.10
2019-04-22T09:19:24.072Z,3.40
2019-04-22T09:24:23.647Z,3.20
2019-04-22T09:26:58.774Z,2.80
2019-04-22T09:29:32.629Z,3.15
2019-04-22T09:32:00.371Z,3.30
2019-04-22T09:34:28.206Z,3.22
2019-04-22T09:36:59.474Z,2.98
2019-04-22T09:39:30.160Z,2.92
2019-04-22T09:42:02.535Z,2.77
2019-04-22T09:44:21.802Z,3.10
2019-04-22T09:46:53.753Z,2.80
2019-04-22T09:49:26.754Z,3.22
2019-04-22T09:52:01.456Z,2.80
2019-04-22T09:54:30.392Z,2.95
2019-04-22T09:56:56.483Z,3.02
2019-04-22T09:59:32.961Z,3.10
2019-04-22T10:04:27.290Z,3.47
2019-04-22T10:06:53.954Z,2.77
2019-04-22T10:09:42.406Z,2.72
2019-04-22T10:11:55.091Z,2.90
2019-04-22T10:14:24.821Z,2.90
2019-04-22T10:16:53.968Z,3.10
2019-04-22T10:19:23.282Z,2.80
2019-04-22T10:22:17.149Z,2.60
2019-04-22T10:24:19.186Z,3.10
2019-04-22T10:26:56.400Z,2.70
2019-04-22T10:29:26.085Z,3.20
2019-04-22T10:31:54.383Z,2.90
2019-04-22T10:34:14.015Z,3.52
2019-04-22T10:36:31.186Z,3.10
2019-04-22T10:39:00.492Z,3.10
2019-04-22T10:41:30.492Z,3.22
2019-04-22T10:43:59.412Z,2.83
2019-04-22T10:46:28.343Z,2.80
2019-04-22T10:48:57.968Z,2.75
2019-04-22T10:51:26.595Z,3.00
2019-04-22T10:53:55.644Z,2.87
2019-04-22T10:56:25.166Z,2.90
2019-04-22T10:58:54.075Z,2.70
2019-04-22T11:01:23.269Z,2.80
2019-04-22T11:03:53.142Z,2.70
2019-04-22T11:06:23.767Z,3.00
2019-04-22T11:08:56.201Z,3.60
2019-04-22T11:11:34.672Z,3.15
2019-04-22T11:13:52.062Z,2.90
2019-04-22T11:16:21.503Z,2.98
2019-04-22T11:18:49.956Z,2.55
2019-04-22T11:21:19.806Z,2.70
2019-04-22T11:23:48.320Z,2.60
2019-04-22T11:26:17.742Z,2.50
2019-04-22T11:28:47.582Z,2.52
2019-04-22T11:31:16.585Z,2.40
2019-04-22T11:33:45.106Z,2.83
2019-04-22T11:36:13.663Z,2.30
2019-04-22T11:38:48.683Z,2.60
2019-04-22T11:41:12.644Z,2.80
2019-04-22T11:43:41.220Z,2.72
2019-04-22T11:46:09.564Z,2.60
2019-04-22T11:48:38.143Z,2.40
2019-04-22T11:51:06.631Z,2.83
2019-04-22T11:53:36.492Z,2.65
2019-04-22T11:56:05.131Z,2.58
2019-04-22T11:58:35.254Z,3.00
2019-04-22T12:01:03.816Z,2.80
2019-04-22T12:03:33.449Z,2.70
2019-04-22T12:06:02.211Z,2.47
2019-04-22T12:08:31.171Z,2.52
2019-04-22T12:11:02.670Z,2.50
2019-04-22T12:13:30.245Z,2.30
2019-04-22T12:15:58.956Z,2.62
2019-04-22T12:18:29.001Z,2.50
2019-04-22T12:20:59.096Z,2.40
2019-04-22T12:23:27.549Z,2.35
2019-04-22T12:26:03.305Z,2.40
2019-04-22T12:28:26.834Z,2.60
2019-04-22T12:30:55.417Z,2.45
2019-04-22T12:33:25.017Z,2.40
2019-04-22T12:35:54.770Z,2.50
2019-04-22T12:38:24.080Z,2.37
2019-04-22T12:40:58.499Z,2.10
2019-04-22T12:43:25.691Z,2.45
2019-04-22T12:45:54.139Z,2.40
2019-04-22T12:48:23.244Z,2.37
2019-04-22T12:50:54.221Z,2.20
2019-04-22T12:53:24.325Z,2.30
2019-04-22T12:55:55.119Z,2.47
2019-04-22T12:58:21.699Z,2.20
2019-04-22T13:00:51.381Z,2.65
2019-04-22T13:03:20.405Z,2.20
2019-04-22T13:05:49.495Z,2.20
2019-04-22T13:08:18.111Z,2.42
2019-04-22T13:10:55.507Z,2.47
2019-04-22T13:13:16.978Z,2.25
2019-04-22T13:15:46.811Z,2.30
2019-04-22T13:18:24.425Z,2.10
2019-04-22T13:20:46.344Z,2.10
2019-04-22T13:23:15.731Z,2.25
2019-04-22T13:25:44.884Z,2.10
2019-04-22T13:28:13.379Z,2.12
2019-04-22T13:30:41.758Z,2.25
2019-04-22T13:33:10.746Z,2.00
2019-04-22T13:35:39.489Z,2.40
2019-04-22T13:38:09.084Z,2.30
2019-04-22T13:40:38.834Z,2.55
2019-04-22T13:43:09.077Z,2.22
2019-04-22T13:45:38.559Z,2.00
2019-04-22T13:48:23.299Z,2.30
2019-04-22T13:51:05.871Z,2.40
2019-04-22T13:58:17.180Z,2.20
2019-04-22T14:00:38.447Z,2.42
2019-04-22T14:03:20.614Z,2.37
2019-04-22T14:05:50.928Z,2.27
2019-04-22T14:08:19.958Z,2.22
2019-04-22T14:10:48.519Z,2.20
2019-04-22T14:13:16.900Z,2.40
2019-04-22T14:15:46.587Z,2.37
2019-04-22T14:18:15.239Z,2.35
2019-04-22T14:20:44.971Z,2.40
2019-04-22T14:23:15.251Z,2.20
2019-04-22T14:25:43.605Z,1.90
2019-04-22T14:28:16.953Z,2.00
2019-04-22T14:30:42.515Z,2.00
2019-04-22T14:33:12.099Z,2.22
2019-04-22T14:35:41.558Z,2.27
2019-04-22T14:38:10.205Z,2.17
2019-04-22T14:40:40.891Z,2.10
2019-04-22T14:43:28.995Z,2.17
2019-04-22T14:46:12.311Z,1.90
2019-04-22T14:48:38.729Z,2.10
2019-04-22T14:50:56.062Z,2.22
2019-04-22T14:53:30.788Z,1.90
2019-04-22T14:55:40.366Z,2.40
2019-04-22T14:58:09.101Z,1.95
2019-04-22T15:00:38.183Z,2.00
2019-04-22T15:03:07.965Z,1.92
2019-04-22T15:05:37.172Z,2.02
2019-04-22T15:08:06.791Z,2.10
2019-04-22T15:10:36.088Z,2.35
2019-04-22T15:13:05.423Z,2.37
2019-04-22T15:15:42.071Z,2.22
2019-04-22T15:18:24.044Z,2.12
2019-04-22T15:21:11.137Z,1.98
2019-04-22T15:23:40.469Z,2.15
2019-04-22T15:26:08.864Z,1.87
2019-04-22T15:28:37.555Z,1.82
2019-04-22T15:31:06.104Z,1.90
2019-04-22T15:33:35.264Z,1.80
2019-04-22T15:36:03.709Z,1.87
2019-04-22T15:38:32.272Z,1.98
2019-04-22T15:41:00.980Z,2.27
2019-04-22T15:43:31.688Z,1.98
2019-04-22T15:46:02.315Z,1.95
2019-04-22T15:48:32.215Z,1.75
2019-04-22T15:51:00.513Z,1.77
2019-04-22T15:53:29.596Z,1.70
2019-04-22T15:55:58.827Z,1.57
2019-04-22T15:58:28.169Z,1.82
2019-04-22T16:01:08.766Z,1.55
2019-04-22T16:03:26.920Z,1.70
2019-04-22T16:05:55.320Z,1.50
2019-04-22T16:08:24.734Z,1.70
2019-04-22T16:10:53.707Z,1.62
2019-04-22T16:13:26.512Z,1.47
2019-04-22T16:15:52.422Z,1.52
2019-04-22T16:18:22.249Z,1.70
2019-04-22T16:20:52.278Z,1.50
2019-04-22T16:23:25.997Z,1.50
2019-04-22T16:26:11.742Z,1.50
2019-04-22T16:28:40.163Z,1.65
2019-04-22T16:31:09.257Z,1.60
2019-04-22T16:33:41.386Z,1.62
2019-04-22T16:36:09.026Z,1.67
2019-04-22T16:38:37.469Z,1.60
2019-04-22T16:41:06.600Z,1.85
2019-04-22T16:43:36.352Z,1.45
2019-04-22T16:46:05.643Z,1.50
2019-04-22T16:48:35.684Z,1.60
2019-04-22T16:51:04.438Z,1.90
2019-04-22T16:53:32.923Z,1.67
2019-04-22T16:56:02.667Z,1.80
2019-04-22T16:58:32.615Z,1.67
2019-04-22T17:01:02.781Z,1.85
2019-04-22T17:03:40.488Z,1.92
2019-04-22T17:06:11.778Z,2.05
2019-04-22T17:08:40.424Z,1.70
2019-04-22T17:11:09.690Z,1.70
2019-04-22T17:13:39.891Z,1.90
2019-04-22T17:16:09.914Z,1.87
2019-04-22T17:18:39.407Z,1.95
2019-04-22T17:21:09.199Z,1.70
2019-04-22T17:23:38.149Z,1.80
2019-04-22T17:26:06.619Z,1.98
2019-04-22T17:28:35.469Z,2.10
2019-04-22T17:31:04.670Z,2.10
2019-04-22T17:33:34.866Z,1.60
2019-04-22T17:36:03.548Z,1.70
2019-04-22T17:38:42.765Z,2.20
2019-04-22T17:41:20.260Z,2.02
2019-04-22T17:46:20.290Z,1.80
2019-04-22T17:48:59.426Z,2.10
2019-04-22T17:56:31.903Z,2.10
2019-04-22T17:58:58.787Z,1.85
2019-04-22T18:01:29.523Z,1.95
2019-04-22T18:03:45.678Z,1.80
2019-04-22T18:06:25.990Z,2.10
2019-04-22T18:08:57.509Z,1.92
2019-04-22T18:11:37.795Z,1.60
2019-04-22T18:14:11.687Z,1.98
2019-04-22T18:16:29.419Z,1.72
2019-04-22T18:19:00.809Z,1.95
2019-04-22T18:21:28.898Z,1.70
2019-04-22T18:23:49.378Z,1.70
2019-04-22T18:26:26.278Z,1.95
2019-04-22T18:29:02.468Z,1.90
2019-04-22T18:31:21.787Z,2.05
2019-04-22T18:33:54.610Z,2.20
2019-04-22T18:36:29.193Z,2.00
2019-04-22T18:39:06.284Z,2.08
2019-04-22T18:41:30.473Z,2.45
2019-04-22T18:44:04.287Z,3.62
2019-04-22T18:46:35.177Z,3.80
2019-04-22T18:49:03.330Z,3.33
2019-04-22T18:51:43.841Z,2.65
2019-04-22T18:54:19.741Z,2.80
2019-04-22T18:56:50.512Z,2.47
2019-04-22T18:59:14.599Z,2.30
2019-04-22T19:01:37.742Z,2.22
2019-04-22T19:04:15.190Z,2.10
2019-04-22T19:07:01.762Z,2.08
2019-04-22T19:09:38.296Z,2.30
2019-04-22T19:12:09.040Z,2.20
2019-04-22T19:14:33.397Z,2.10
2019-04-22T19:17:15.302Z,2.20
2019-04-22T19:19:38.379Z,2.47
2019-04-22T19:22:02.589Z,2.10
2019-04-22T19:24:24.217Z,2.20
2019-04-22T19:29:33.192Z,2.22
2019-04-22T19:32:01.810Z,2.27
2019-04-22T19:34:31.740Z,2.17
2019-04-22T19:37:02.139Z,2.30
2019-04-22T19:39:27.583Z,2.40
2019-04-22T19:42:00.890Z,3.42
2019-04-22T19:44:36.239Z,2.47
2019-04-22T19:47:18.161Z,2.37
2019-04-22T19:49:38.430Z,2.47
2019-04-22T19:52:05.999Z,2.40
2019-04-22T19:54:29.064Z,2.10
2019-04-22T19:56:53.135Z,2.27
2019-04-22T19:59:23.600Z,2.42
2019-04-22T20:02:04.346Z,2.50
2019-04-22T20:04:49.356Z,2.50
2019-04-22T20:07:11.224Z,2.90
2019-04-22T20:09:43.791Z,4.17
2019-04-22T20:12:13.863Z,2.52
2019-04-22T20:14:46.305Z,3.00
2019-04-22T20:17:09.692Z,2.80
2019-04-22T20:19:50.173Z,2.40
2019-04-22T20:22:30.251Z,2.45
2019-04-22T20:24:47.089Z,2.17
2019-04-22T20:27:31.773Z,2.25
2019-04-22T20:30:02.490Z,2.60
2019-04-22T20:32:41.297Z,2.20
2019-04-22T20:35:17.894Z,2.33
2019-04-22T20:37:47.227Z,2.75
2019-04-22T20:40:16.882Z,2.52
2019-04-22T20:42:48.600Z,2.50
2019-04-22T20:45:18.073Z,2.40
2019-04-22T20:47:39.561Z,2.50
2019-04-22T20:50:17.512Z,2.37
2019-04-22T20:55:07.998Z,2.37
2019-04-22T20:57:50.003Z,2.58
2019-04-22T21:00:08.923Z,2.35
2019-04-22T21:02:32.624Z,2.25
2019-04-22T21:05:13.460Z,2.45
2019-04-22T21:07:49.875Z,2.50
2019-04-22T21:10:14.542Z,2.20
2019-04-22T21:12:39.750Z,2.47
2019-04-22T21:15:25.237Z,2.40
2019-04-22T21:17:45.807Z,2.30
2019-04-22T21:20:26.217Z,2.60
2019-04-22T21:22:48.192Z,2.50
2019-04-22T21:25:15.314Z,2.30
2019-04-22T21:27:52.703Z,2.20
2019-04-22T21:30:19.981Z,2.10
2019-04-22T21:32:45.114Z,2.30
2019-04-22T21:35:32.124Z,2.60
2019-04-22T21:37:51.605Z,2.47
2019-04-22T21:42:58.331Z,2.50
2019-04-22T21:45:14.663Z,2.35
2019-04-22T21:47:57.743Z,3.40
2019-04-22T21:50:35.923Z,2.60
2019-04-22T21:52:56.903Z,2.75
2019-04-22T21:55:24.404Z,2.47
2019-04-22T21:57:57.277Z,2.40
2019-04-22T22:00:31.112Z,2.45
2019-04-22T22:02:52.857Z,2.47
2019-04-22T22:05:15.483Z,2.00
2019-04-22T22:07:33.303Z,2.50
2019-04-22T22:10:22.845Z,2.42
2019-04-22T22:12:54.853Z,2.60
2019-04-22T22:15:18.588Z,2.25
2019-04-22T22:17:51.509Z,2.15
2019-04-22T22:20:14.788Z,2.12
2019-04-22T22:23:16.926Z,2.47
2019-04-22T22:25:19.717Z,2.67
2019-04-22T22:27:47.539Z,2.47
2019-04-22T22:32:58.727Z,2.17
2019-04-22T22:35:20.741Z,2.50
2019-04-22T22:37:50.319Z,2.30
2019-04-22T22:40:09.303Z,2.60
2019-04-22T22:42:38.728Z,2.37
2019-04-22T22:45:16.865Z,2.15
2019-04-22T22:47:53.385Z,2.62
2019-04-22T22:50:20.057Z,2.30
2019-04-22T22:52:58.912Z,2.10
2019-04-22T22:55:21.988Z,2.60
2019-04-22T22:57:49.871Z,2.47
2019-04-22T23:00:19.404Z,2.30
2019-04-22T23:03:06.978Z,2.67
2019-04-22T23:05:26.049Z,2.77
2019-04-22T23:07:54.164Z,2.30
2019-04-22T23:10:26.733Z,2.27
2019-04-22T23:12:55.694Z,2.40
2019-04-22T23:15:20.384Z,2.30
2019-04-22T23:17:34.276Z,2.25
2019-04-22T23:20:04.969Z,2.15
2019-04-22T23:22:50.893Z,2.20
2019-04-22T23:25:27.117Z,2.30
2019-04-22T23:27:57.094Z,2.50
2019-04-22T23:30:25.427Z,2.50
2019-04-22T23:33:03.383Z,2.40
2019-04-22T23:35:43.077Z,2.60
2019-04-22T23:40:47.779Z,2.47
2019-04-22T23:43:30.595Z,2.30
2019-04-22T23:45:50.380Z,2.40
2019-04-22T23:48:14.127Z,2.67
2019-04-22T23:50:51.083Z,2.00
2019-04-22T23:53:55.492Z,2.52
2019-04-22T23:56:03.199Z,2.70
2019-04-22T23:58:47.052Z,2.80
